createdAt,value
2022-10-02T00:01:10.104Z,99.90
2022-10-02T00:03:41.859Z,99.90
2022-10-02T00:06:17.126Z,99.90
2022-10-02T00:08:45.673Z,99.90
2022-10-02T00:11:13.650Z,99.90
2022-10-02T00:13:44.788Z,99.90
2022-10-02T00:16:31.642Z,99.90
2022-10-02T00:18:59.696Z,99.90
2022-10-02T00:21:37.668Z,99.90
2022-10-02T00:24:07.085Z,99.90
2022-10-02T00:26:36.012Z,99.90
2022-10-02T00:29:12.390Z,99.90
2022-10-02T00:31:41.777Z,99.90
2022-10-02T00:34:23.579Z,99.90
2022-10-02T00:37:23.941Z,99.90
2022-10-02T00:40:04.197Z,99.90
2022-10-02T00:42:56.386Z,99.90
2022-10-02T00:45:33.643Z,99.90
2022-10-02T00:48:08.201Z,99.90
2022-10-02T00:50:46.721Z,99.90
2022-10-02T00:53:14.738Z,99.90
2022-10-02T00:55:48.724Z,99.90
2022-10-02T00:58:32.040Z,99.90
2022-10-02T01:01:04.231Z,99.90
2022-10-02T01:03:40.242Z,99.90
2022-10-02T01:06:11.037Z,99.90
2022-10-02T01:08:41.466Z,99.90
2022-10-02T01:11:10.003Z,99.90
2022-10-02T01:13:38.107Z,99.90
2022-10-02T01:16:11.933Z,99.90
2022-10-02T01:18:40.008Z,99.90
2022-10-02T01:21:14.864Z,99.90
2022-10-02T01:23:53.842Z,99.90
2022-10-02T01:26:24.253Z,99.90
2022-10-02T01:28:55.144Z,99.90
2022-10-02T01:31:25.333Z,99.90
2022-10-02T01:33:56.304Z,99.90
2022-10-02T01:36:26.581Z,99.90
2022-10-02T01:38:57.525Z,99.90
2022-10-02T01:41:25.892Z,99.90
2022-10-02T01:43:58.288Z,99.90
2022-10-02T01:47:00.857Z,99.90
2022-10-02T01:49:43.831Z,99.90
2022-10-02T01:52:30.466Z,99.90
2022-10-02T01:55:08.992Z,99.90
2022-10-02T01:57:43.022Z,99.90
2022-10-02T02:00:22.649Z,99.90
2022-10-02T02:02:50.663Z,99.90
2022-10-02T02:05:30.993Z,99.90
2022-10-02T02:08:06.759Z,99.90
2022-10-02T02:10:47.319Z,99.90
2022-10-02T02:13:28.817Z,99.90
2022-10-02T02:16:08.281Z,99.90
2022-10-02T02:18:44.585Z,99.90
2022-10-02T02:21:25.278Z,99.90
2022-10-02T02:24:01.553Z,99.90
2022-10-02T02:26:30.849Z,99.90
2022-10-02T02:29:01.559Z,99.90
2022-10-02T02:31:33.511Z,99.90
2022-10-02T02:34:03.783Z,99.90
2022-10-02T02:36:40.990Z,99.90
2022-10-02T02:39:13.383Z,99.90
2022-10-02T02:41:47.518Z,99.90
2022-10-02T02:44:28.425Z,99.90
2022-10-02T02:47:07.077Z,99.90
2022-10-02T02:49:44.679Z,99.90
2022-10-02T02:52:20.896Z,99.90
2022-10-02T02:55:00.359Z,99.90
2022-10-02T02:57:38.238Z,99.90
2022-10-02T03:00:08.913Z,99.90
2022-10-02T03:02:36.964Z,99.90
2022-10-02T03:05:14.280Z,99.90
2022-10-02T03:07:48.066Z,99.90
2022-10-02T03:10:19.259Z,99.90
2022-10-02T03:12:47.245Z,99.90
2022-10-02T03:15:28.649Z,99.90
2022-10-02T03:18:02.447Z,99.90
2022-10-02T03:20:36.381Z,99.90
2022-10-02T03:23:23.058Z,99.90
2022-10-02T03:25:51.048Z,99.90
2022-10-02T03:28:43.530Z,99.90
2022-10-02T03:31:11.088Z,99.90
2022-10-02T03:33:42.497Z,99.90
2022-10-02T03:36:18.255Z,99.90
2022-10-02T03:38:56.994Z,99.90
2022-10-02T03:41:34.905Z,99.90
2022-10-02T03:44:05.366Z,99.90
2022-10-02T03:46:33.655Z,99.90
2022-10-02T03:49:04.723Z,99.90
2022-10-02T03:51:33.951Z,99.90
2022-10-02T03:54:07.240Z,99.90
2022-10-02T03:56:45.323Z,99.90
2022-10-02T03:59:18.249Z,99.90
2022-10-02T04:01:50.994Z,99.90
2022-10-02T04:04:23.258Z,99.90
2022-10-02T04:06:57.560Z,99.90
2022-10-02T04:09:32.121Z,99.90
2022-10-02T04:12:05.334Z,99.90
2022-10-02T04:14:41.077Z,99.90
2022-10-02T04:17:14.232Z,99.90
2022-10-02T04:19:42.188Z,99.90
2022-10-02T04:22:16.365Z,99.90
2022-10-02T04:24:47.667Z,99.90
2022-10-02T04:27:15.635Z,99.90
2022-10-02T04:29:49.857Z,99.90
2022-10-02T04:32:23.895Z,99.90
2022-10-02T04:34:52.619Z,99.90
2022-10-02T04:37:41.491Z,99.90
2022-10-02T04:40:30.750Z,99.90
2022-10-02T04:43:15.835Z,99.90
2022-10-02T04:46:02.262Z,99.90
2022-10-02T04:48:49.893Z,99.90
2022-10-02T04:51:27.484Z,99.90
2022-10-02T04:54:10.739Z,99.90
2022-10-02T04:56:51.897Z,99.90
2022-10-02T04:59:38.482Z,99.90
2022-10-02T05:02:24.936Z,99.90
2022-10-02T05:05:02.916Z,99.90
2022-10-02T05:07:46.248Z,99.90
2022-10-02T05:10:27.540Z,99.90
2022-10-02T05:12:55.508Z,99.90
2022-10-02T05:15:26.408Z,99.90
2022-10-02T05:18:23.719Z,99.90
2022-10-02T05:20:51.955Z,99.90
2022-10-02T05:23:38.661Z,99.90
2022-10-02T05:26:29.880Z,99.90
2022-10-02T05:29:12.862Z,99.90
2022-10-02T05:31:46.520Z,99.90
2022-10-02T05:34:17.513Z,99.90
2022-10-02T05:36:54.379Z,99.90
2022-10-02T05:39:45.334Z,99.90
2022-10-02T05:42:13.250Z,99.90
2022-10-02T05:44:43.637Z,99.90
2022-10-02T05:47:29.824Z,99.90
2022-10-02T05:50:00.754Z,99.90
2022-10-02T05:52:41.180Z,99.90
2022-10-02T05:55:31.459Z,99.90
2022-10-02T05:58:06.641Z,99.90
2022-10-02T06:00:59.573Z,99.90
2022-10-02T06:03:39.813Z,99.90
2022-10-02T06:06:29.288Z,99.90
2022-10-02T06:09:05.985Z,99.90
2022-10-02T06:11:36.340Z,99.90
2022-10-02T06:14:24.623Z,99.90
2022-10-02T06:17:01.557Z,99.90
2022-10-02T06:19:38.791Z,99.90
2022-10-02T06:22:09.177Z,99.90
2022-10-02T06:24:41.219Z,99.90
2022-10-02T06:27:13.576Z,99.90
2022-10-02T06:29:44.167Z,99.90
2022-10-02T06:32:32.956Z,99.90
2022-10-02T06:35:01.269Z,99.90
2022-10-02T06:37:29.292Z,99.90
2022-10-02T06:39:57.312Z,99.90
2022-10-02T06:42:25.247Z,99.90
2022-10-02T06:45:05.121Z,99.90
2022-10-02T06:47:36.087Z,99.90
2022-10-02T06:50:11.152Z,99.90
2022-10-02T06:52:42.318Z,99.90
2022-10-02T06:55:22.896Z,99.90
2022-10-02T06:58:03.902Z,99.90
2022-10-02T07:00:35.417Z,99.90
2022-10-02T07:03:23.409Z,99.90
2022-10-02T07:06:02.105Z,99.90
2022-10-02T07:08:38.319Z,99.90
2022-10-02T07:11:06.536Z,98.50
2022-10-02T07:13:41.966Z,99.90
2022-10-02T07:16:28.708Z,99.60
2022-10-02T07:19:15.120Z,96.20
2022-10-02T07:21:46.586Z,99.90
2022-10-02T07:24:26.102Z,95.30
2022-10-02T07:27:12.822Z,92.10
2022-10-02T07:29:56.111Z,90.80
2022-10-02T07:32:39.315Z,90.80
2022-10-02T07:35:22.641Z,90.10
2022-10-02T07:38:08.669Z,90.50
2022-10-02T07:40:43.644Z,86.70
2022-10-02T07:43:46.290Z,90.10
2022-10-02T07:46:29.720Z,85.30
2022-10-02T07:49:07.803Z,81.00
2022-10-02T07:51:53.993Z,82.60
2022-10-02T07:54:45.661Z,80.70
2022-10-02T07:57:32.559Z,82.70
2022-10-02T08:00:27.076Z,75.70
2022-10-02T08:03:01.239Z,76.90
2022-10-02T08:05:39.732Z,70.80
2022-10-02T08:08:15.014Z,70.30
2022-10-02T08:10:45.665Z,74.90
2022-10-02T08:13:21.760Z,76.70
2022-10-02T08:15:55.808Z,70.90
2022-10-02T08:18:38.821Z,70.90
2022-10-02T08:21:15.793Z,66.50
2022-10-02T08:23:50.556Z,64.30
2022-10-02T08:26:35.410Z,60.20
2022-10-02T08:29:11.619Z,62.70
2022-10-02T08:31:40.410Z,63.60
2022-10-02T08:34:14.545Z,61.00
2022-10-02T08:36:51.389Z,61.90
2022-10-02T08:39:22.439Z,56.10
2022-10-02T08:42:09.136Z,59.60
2022-10-02T08:44:55.996Z,56.60
2022-10-02T08:47:41.273Z,56.30
2022-10-02T08:50:15.325Z,57.20
2022-10-02T08:53:02.359Z,57.60
2022-10-02T08:55:33.487Z,53.90
2022-10-02T08:58:07.126Z,55.60
2022-10-02T09:00:59.003Z,55.10
2022-10-02T09:03:36.164Z,56.60
2022-10-02T09:06:10.667Z,54.20
2022-10-02T09:08:57.738Z,57.30
2022-10-02T09:11:45.606Z,50.80
2022-10-02T09:14:38.533Z,52.80
2022-10-02T09:17:15.750Z,52.90
2022-10-02T09:19:55.685Z,51.20
2022-10-02T09:22:53.283Z,50.70
2022-10-02T09:25:37.665Z,50.60
2022-10-02T09:28:05.878Z,50.40
2022-10-02T09:30:40.151Z,50.40
2022-10-02T09:33:15.172Z,48.00
2022-10-02T09:35:53.341Z,48.90
2022-10-02T09:38:32.778Z,48.90
2022-10-02T09:41:35.114Z,47.60
2022-10-02T09:44:19.913Z,47.90
2022-10-02T09:46:57.831Z,45.90
2022-10-02T09:49:44.704Z,47.20
2022-10-02T09:52:32.823Z,47.10
2022-10-02T09:55:29.686Z,47.40
2022-10-02T09:58:22.486Z,47.20
2022-10-02T10:00:56.533Z,46.50
2022-10-02T10:03:28.430Z,46.50
2022-10-02T10:06:08.656Z,47.00
2022-10-02T10:08:44.719Z,45.50
2022-10-02T10:11:31.384Z,45.40
2022-10-02T10:14:11.830Z,45.20
2022-10-02T10:16:42.842Z,46.30
2022-10-02T10:19:42.405Z,44.00
2022-10-02T10:22:39.509Z,44.50
2022-10-02T10:25:28.605Z,46.20
2022-10-02T10:28:19.386Z,43.90
2022-10-02T10:31:01.338Z,43.70
2022-10-02T10:33:57.824Z,45.30
2022-10-02T10:36:46.738Z,44.30
2022-10-02T10:39:30.962Z,41.10
2022-10-02T10:42:17.689Z,43.00
2022-10-02T10:55:07.965Z,43.10
2022-10-02T10:57:39.110Z,41.80
2022-10-02T11:00:16.686Z,42.00
2022-10-02T11:02:44.677Z,42.30
2022-10-02T11:05:15.848Z,41.50
2022-10-02T11:08:06.805Z,40.60
2022-10-02T11:10:44.031Z,42.20
2022-10-02T11:13:12.065Z,40.70
2022-10-02T11:16:00.117Z,40.50
2022-10-02T11:18:41.052Z,41.70
2022-10-02T11:21:18.982Z,40.60
2022-10-02T11:23:46.861Z,40.30
2022-10-02T11:26:18.126Z,43.60
2022-10-02T11:28:59.831Z,42.00
2022-10-02T11:31:35.586Z,42.50
2022-10-02T11:34:21.873Z,40.70
2022-10-02T11:37:13.644Z,41.30
2022-10-02T11:39:56.895Z,40.40
2022-10-02T11:42:36.498Z,41.90
2022-10-02T11:45:22.428Z,39.60
2022-10-02T11:48:00.323Z,40.80
2022-10-02T11:50:41.292Z,41.20
2022-10-02T11:53:18.310Z,38.90
2022-10-02T11:55:52.178Z,39.50
2022-10-02T11:58:29.274Z,41.60
2022-10-02T12:01:06.326Z,41.50
2022-10-02T12:03:46.917Z,39.60
2022-10-02T12:06:21.945Z,40.10
2022-10-02T12:08:59.066Z,40.90
2022-10-02T12:11:34.983Z,42.50
2022-10-02T12:14:18.474Z,44.60
2022-10-02T12:17:01.772Z,45.60
2022-10-02T12:20:08.159Z,47.50
2022-10-02T12:23:00.312Z,49.50
2022-10-02T12:25:55.809Z,48.70
2022-10-02T12:28:30.200Z,51.50
2022-10-02T12:31:13.413Z,51.80
2022-10-02T12:33:45.259Z,51.90
2022-10-02T12:36:34.363Z,50.40
2022-10-02T12:39:13.401Z,51.20
2022-10-02T12:41:47.603Z,50.60
2022-10-02T12:44:17.394Z,51.40
2022-10-02T12:47:05.257Z,51.70
2022-10-02T12:49:54.006Z,52.10
2022-10-02T12:52:40.957Z,52.80
2022-10-02T12:55:18.006Z,52.70
2022-10-02T12:57:56.344Z,52.40
2022-10-02T13:00:25.970Z,52.00
2022-10-02T13:03:05.880Z,53.40
2022-10-02T13:05:51.688Z,51.10
2022-10-02T13:08:20.972Z,50.60
2022-10-02T13:11:07.291Z,50.80
2022-10-02T13:13:53.960Z,49.00
2022-10-02T13:16:41.740Z,49.50
2022-10-02T13:19:12.630Z,47.30
2022-10-02T13:22:01.369Z,46.70
2022-10-02T13:24:32.451Z,46.40
2022-10-02T13:27:20.786Z,48.30
2022-10-02T13:29:58.996Z,50.40
2022-10-02T13:32:45.369Z,49.60
2022-10-02T13:35:19.798Z,53.40
2022-10-02T13:38:03.868Z,54.80
2022-10-02T13:40:44.330Z,53.30
2022-10-02T13:43:21.484Z,55.80
2022-10-02T13:46:02.880Z,55.30
2022-10-02T13:48:55.273Z,56.60
2022-10-02T13:51:33.085Z,55.20
2022-10-02T13:54:16.243Z,58.20
2022-10-02T13:56:44.359Z,56.90
2022-10-02T13:59:34.159Z,56.50
2022-10-02T14:02:02.208Z,57.40
2022-10-02T14:04:38.388Z,55.20
2022-10-02T14:07:32.741Z,55.00
2022-10-02T14:10:00.883Z,55.30
2022-10-02T14:12:44.729Z,55.00
2022-10-02T14:15:31.413Z,55.20
2022-10-02T14:18:05.475Z,54.90
2022-10-02T14:20:45.552Z,56.40
2022-10-02T14:23:13.465Z,56.80
2022-10-02T14:25:48.902Z,55.60
2022-10-02T14:28:37.106Z,57.40
2022-10-02T14:31:28.358Z,56.80
2022-10-02T14:34:14.634Z,61.10
2022-10-02T14:36:53.782Z,58.50
2022-10-02T14:39:42.053Z,58.00
2022-10-02T14:42:10.083Z,61.00
2022-10-02T14:44:42.503Z,59.60
2022-10-02T14:47:17.713Z,61.80
2022-10-02T14:50:11.923Z,62.60
2022-10-02T14:52:52.152Z,61.20
2022-10-02T14:55:52.672Z,62.60
2022-10-02T14:58:32.052Z,64.00
2022-10-02T15:01:18.701Z,65.90
2022-10-02T15:04:13.895Z,67.00
2022-10-02T15:07:00.604Z,66.10
2022-10-02T15:09:51.615Z,66.80
2022-10-02T15:12:26.323Z,68.90
2022-10-02T15:15:03.911Z,72.90
2022-10-02T15:18:00.629Z,70.30
2022-10-02T15:20:47.633Z,71.90
2022-10-02T15:23:41.946Z,75.00
2022-10-02T15:26:10.837Z,74.90
2022-10-02T15:29:02.949Z,80.90
2022-10-02T15:31:49.915Z,85.70
2022-10-02T15:34:20.919Z,78.50
2022-10-02T15:36:48.993Z,81.80
2022-10-02T15:39:16.968Z,81.40
2022-10-02T15:41:49.063Z,85.40
2022-10-02T15:44:35.548Z,90.30
2022-10-02T15:47:11.039Z,88.00
2022-10-02T15:49:44.996Z,90.10
2022-10-02T15:52:23.254Z,92.00
2022-10-02T15:55:00.068Z,93.50
2022-10-02T15:57:37.111Z,99.90
2022-10-02T16:00:13.508Z,97.70
2022-10-02T16:02:45.608Z,94.70
2022-10-02T16:05:22.973Z,93.80
2022-10-02T16:08:15.283Z,98.70
2022-10-02T16:10:55.835Z,99.90
2022-10-02T16:13:26.965Z,99.90
2022-10-02T16:16:07.209Z,99.90
2022-10-02T16:18:44.544Z,99.90
2022-10-02T16:21:18.593Z,99.90
2022-10-02T16:23:56.381Z,99.90
2022-10-02T16:26:35.667Z,99.90
2022-10-02T16:29:22.491Z,99.90
2022-10-02T16:31:53.569Z,99.90
2022-10-02T16:34:21.591Z,99.90
2022-10-02T16:36:54.448Z,99.90
2022-10-02T16:39:26.651Z,99.90
2022-10-02T16:42:13.570Z,99.90
2022-10-02T16:44:47.733Z,99.90
2022-10-02T16:47:18.725Z,99.90
2022-10-02T16:50:05.217Z,99.90
2022-10-02T16:52:59.683Z,99.90
2022-10-02T16:55:32.428Z,99.90
2022-10-02T16:58:27.752Z,99.90
2022-10-02T17:01:22.667Z,99.90
2022-10-02T17:03:50.877Z,99.90
2022-10-02T17:06:27.037Z,99.90
2022-10-02T17:09:17.921Z,99.90
2022-10-02T17:11:52.606Z,99.90
2022-10-02T17:14:26.725Z,99.90
2022-10-02T17:17:03.480Z,99.90
2022-10-02T17:19:49.723Z,99.90
2022-10-02T17:22:27.132Z,99.90
2022-10-02T17:25:01.459Z,99.90
2022-10-02T17:27:29.981Z,99.90
2022-10-02T17:30:02.939Z,99.90
2022-10-02T17:32:36.128Z,99.90
2022-10-02T17:35:24.513Z,99.90
2022-10-02T17:37:57.400Z,99.90
2022-10-02T17:40:30.980Z,99.90
2022-10-02T17:43:22.129Z,99.90
2022-10-02T17:45:54.007Z,99.90
2022-10-02T17:48:21.945Z,99.90
2022-10-02T17:51:02.242Z,99.90
2022-10-02T17:53:51.904Z,99.90
2022-10-02T17:56:29.637Z,99.90
2022-10-02T17:59:20.260Z,99.90
2022-10-02T18:01:57.753Z,99.90
2022-10-02T18:04:35.660Z,99.90
2022-10-02T18:07:15.887Z,99.90
2022-10-02T18:10:02.549Z,99.90
2022-10-02T18:12:31.503Z,99.90
2022-10-02T18:15:06.777Z,99.90
2022-10-02T18:17:51.297Z,99.90
2022-10-02T18:20:39.810Z,99.90
2022-10-02T18:23:20.068Z,99.90
2022-10-02T18:25:56.145Z,99.90
2022-10-02T18:28:34.225Z,99.90
2022-10-02T18:31:03.579Z,99.90
2022-10-02T18:33:50.563Z,99.90
2022-10-02T18:36:24.999Z,99.90
2022-10-02T18:39:01.092Z,99.90
2022-10-02T18:41:41.562Z,99.90
2022-10-02T18:44:29.849Z,99.90
2022-10-02T18:47:17.007Z,99.90
2022-10-02T18:50:08.502Z,99.90
2022-10-02T18:52:40.146Z,99.90
2022-10-02T18:55:26.650Z,99.90
2022-10-02T18:58:12.043Z,99.90
2022-10-02T19:00:58.684Z,99.90
2022-10-02T19:03:26.813Z,99.90
2022-10-02T19:06:18.294Z,99.90
2022-10-02T19:08:55.511Z,99.90
2022-10-02T19:11:30.152Z,99.90
2022-10-02T19:14:06.922Z,99.90
2022-10-02T19:16:37.360Z,99.90
2022-10-02T19:19:10.300Z,99.90
2022-10-02T19:21:38.615Z,99.90
2022-10-02T19:24:08.890Z,99.90
2022-10-02T19:26:41.684Z,99.90
2022-10-02T19:29:24.165Z,99.90
2022-10-02T19:31:53.032Z,99.90
2022-10-02T19:34:25.225Z,99.90
2022-10-02T19:36:54.949Z,99.90
2022-10-02T19:39:26.727Z,99.90
2022-10-02T19:41:55.970Z,99.90
2022-10-02T19:44:28.581Z,99.90
2022-10-02T19:46:59.503Z,99.90
2022-10-02T19:49:30.501Z,99.90
2022-10-02T19:51:58.713Z,99.90
2022-10-02T19:54:30.302Z,99.90
2022-10-02T19:57:12.046Z,99.90
2022-10-02T19:59:43.064Z,99.90
2022-10-02T20:02:15.021Z,99.90
2022-10-02T20:04:43.220Z,99.90
2022-10-02T20:07:16.935Z,99.90
2022-10-02T20:09:49.778Z,99.90
2022-10-02T20:12:24.338Z,99.90
2022-10-02T20:14:57.194Z,99.90
2022-10-02T20:17:25.265Z,99.90
2022-10-02T20:19:55.707Z,99.90
2022-10-02T20:22:29.000Z,99.90
2022-10-02T20:25:04.205Z,99.90
2022-10-02T20:27:47.226Z,99.90
2022-10-02T20:30:17.512Z,99.90
2022-10-02T20:32:48.506Z,99.90
2022-10-02T20:35:24.893Z,99.90
2022-10-02T20:37:57.074Z,99.90
2022-10-02T20:40:27.880Z,99.90
2022-10-02T20:43:00.679Z,99.90
2022-10-02T20:45:37.285Z,99.90
2022-10-02T20:48:24.509Z,99.90
2022-10-02T20:50:58.396Z,99.90
2022-10-02T20:53:45.132Z,99.90
2022-10-02T20:56:19.284Z,99.90
2022-10-02T20:59:06.591Z,99.90
2022-10-02T21:01:49.121Z,99.90
2022-10-02T21:04:23.786Z,99.90
2022-10-02T21:06:58.428Z,99.90
2022-10-02T21:09:42.849Z,99.90
2022-10-02T21:12:13.905Z,99.90
2022-10-02T21:14:53.637Z,99.90
2022-10-02T21:17:24.777Z,99.90
2022-10-02T21:20:05.072Z,99.90
2022-10-02T21:22:45.470Z,99.90
2022-10-02T21:25:22.463Z,99.90
2022-10-02T21:27:57.389Z,99.90
2022-10-02T21:30:31.332Z,99.90
2022-10-02T21:33:10.491Z,99.90
2022-10-02T21:35:44.519Z,99.90
2022-10-02T21:38:28.475Z,99.90
2022-10-02T21:41:26.561Z,99.90
2022-10-02T21:44:18.312Z,99.90
2022-10-02T21:47:05.419Z,99.90
2022-10-02T21:49:52.684Z,99.90
2022-10-02T21:52:30.170Z,99.90
2022-10-02T21:55:04.324Z,99.90
2022-10-02T21:57:32.357Z,99.90
2022-10-02T22:00:16.318Z,99.90
2022-10-02T22:03:04.680Z,99.90
2022-10-02T22:05:51.521Z,99.90
2022-10-02T22:08:32.909Z,99.90
2022-10-02T22:11:24.455Z,99.90
2022-10-02T22:13:55.327Z,99.90
2022-10-02T22:16:31.719Z,99.90
2022-10-02T22:19:05.119Z,99.90
2022-10-02T22:21:41.930Z,99.90
2022-10-02T22:24:10.288Z,99.90
2022-10-02T22:26:48.833Z,99.90
2022-10-02T22:29:35.480Z,99.90
2022-10-02T22:32:30.708Z,99.90
2022-10-02T22:35:06.575Z,99.90
2022-10-02T22:37:44.725Z,99.90
2022-10-02T22:40:16.537Z,99.90
2022-10-02T22:42:50.749Z,99.90
2022-10-02T22:45:21.616Z,99.90
2022-10-02T22:47:57.492Z,99.90
2022-10-02T22:50:33.778Z,99.90
2022-10-02T22:53:10.974Z,99.90
2022-10-02T22:55:50.963Z,99.90
2022-10-02T22:58:21.490Z,99.90
2022-10-02T23:00:57.011Z,99.90
2022-10-02T23:03:29.700Z,99.90
2022-10-02T23:06:01.867Z,99.90
2022-10-02T23:08:29.798Z,99.90
2022-10-02T23:11:02.580Z,99.90
2022-10-02T23:13:42.295Z,99.90
2022-10-02T23:16:13.421Z,99.90
2022-10-02T23:19:00.148Z,99.90
2022-10-02T23:21:46.986Z,99.90
2022-10-02T23:24:20.662Z,99.90
2022-10-02T23:26:48.760Z,99.90
2022-10-02T23:29:19.834Z,99.90
2022-10-02T23:31:47.907Z,99.90
2022-10-02T23:34:15.803Z,99.90
2022-10-02T23:37:10.164Z,99.90
2022-10-02T23:39:46.561Z,99.90
2022-10-02T23:42:18.863Z,99.90
2022-10-02T23:45:08.727Z,99.90
2022-10-02T23:47:39.905Z,99.90
2022-10-02T23:50:19.915Z,99.90
2022-10-02T23:52:48.790Z,99.90
2022-10-02T23:55:35.494Z,99.90
2022-10-02T23:58:13.712Z,99.90
